createdAt,value
2019-02-04T00:01:25.628Z,-1.06
2019-02-04T00:04:32.915Z,-1.06
2019-02-04T00:07:39.950Z,-1.04
2019-02-04T00:10:46.874Z,-1.03
2019-02-04T00:13:54.892Z,-1.01
2019-02-04T00:17:01.987Z,-1.07
2019-02-04T00:20:09.433Z,-1.10
2019-02-04T00:23:16.405Z,-1.06
2019-02-04T00:26:23.394Z,-0.97
2019-02-04T00:29:30.486Z,-1.05
2019-02-04T00:32:37.387Z,-1.02
2019-02-04T00:35:44.298Z,-1.00
2019-02-04T00:38:51.748Z,-1.09
2019-02-04T00:41:58.691Z,-1.00
2019-02-04T00:45:06.402Z,-1.08
2019-02-04T00:48:14.714Z,-1.06
2019-02-04T00:51:22.661Z,-1.05
2019-02-04T00:54:29.599Z,-1.03
2019-02-04T00:57:37.026Z,-0.98
2019-02-04T01:00:44.014Z,-0.97
2019-02-04T01:03:51.010Z,-1.00
2019-02-04T01:06:58.250Z,-0.98
2019-02-04T01:10:06.108Z,-0.93
2019-02-04T01:13:13.611Z,-0.93
2019-02-04T01:16:20.667Z,-0.93
2019-02-04T01:19:27.708Z,-0.86
2019-02-04T01:22:34.633Z,-0.87
2019-02-04T01:25:41.970Z,-0.87
2019-02-04T01:28:50.009Z,-0.92
2019-02-04T01:31:57.296Z,-0.88
2019-02-04T01:35:04.714Z,-0.92
2019-02-04T01:38:11.780Z,-0.94
2019-02-04T01:41:18.803Z,-0.94
2019-02-04T01:44:25.746Z,-0.93
2019-02-04T01:47:33.184Z,-0.90
2019-02-04T01:50:40.740Z,-0.95
2019-02-04T01:53:47.864Z,-1.00
2019-02-04T01:56:54.876Z,-0.94
2019-02-04T02:00:01.833Z,-0.87
2019-02-04T02:03:08.774Z,-0.94
2019-02-04T02:06:15.877Z,-0.93
2019-02-04T02:09:24.712Z,-0.95
2019-02-04T02:12:31.810Z,-0.96
2019-02-04T02:15:40.404Z,-0.94
2019-02-04T02:18:48.272Z,-0.93
2019-02-04T02:21:55.197Z,-0.82
2019-02-04T02:25:02.426Z,-0.83
2019-02-04T02:28:09.664Z,-0.88
2019-02-04T02:31:16.586Z,-0.97
2019-02-04T02:34:23.550Z,-0.94
2019-02-04T02:37:30.553Z,-0.81
2019-02-04T02:40:37.600Z,-0.96
2019-02-04T02:43:44.761Z,-1.05
2019-02-04T02:46:51.722Z,-1.06
2019-02-04T02:49:58.981Z,-1.15
2019-02-04T02:53:06.362Z,-1.16
2019-02-04T02:56:16.341Z,-0.97
2019-02-04T02:59:23.317Z,-0.97
2019-02-04T03:02:30.283Z,-1.07
2019-02-04T03:05:37.690Z,-0.97
2019-02-04T03:08:44.612Z,-1.01
2019-02-04T03:11:51.650Z,-0.93
2019-02-04T03:14:58.691Z,-0.96
2019-02-04T03:18:05.730Z,-1.05
2019-02-04T03:21:12.741Z,-1.12
2019-02-04T03:24:19.863Z,-1.07
2019-02-04T03:27:26.821Z,-0.97
2019-02-04T03:30:36.554Z,-1.05
2019-02-04T03:33:43.695Z,-1.06
2019-02-04T03:36:50.887Z,-1.08
2019-02-04T03:39:57.903Z,-1.07
2019-02-04T03:43:05.301Z,-1.23
2019-02-04T03:46:12.366Z,-1.07
2019-02-04T03:49:19.264Z,-1.06
2019-02-04T03:52:26.235Z,-1.12
2019-02-04T03:55:34.325Z,-1.17
2019-02-04T03:58:43.093Z,-1.21
2019-02-04T04:01:50.382Z,-1.12
2019-02-04T04:04:57.595Z,-1.45
2019-02-04T04:08:04.483Z,-1.15
2019-02-04T04:11:11.530Z,-1.12
2019-02-04T04:14:18.450Z,-1.09
2019-02-04T04:17:25.432Z,-1.18
2019-02-04T04:20:32.408Z,-1.25
2019-02-04T04:23:39.550Z,-1.21
2019-02-04T04:26:46.466Z,-1.25
2019-02-04T04:29:54.094Z,-1.21
2019-02-04T04:33:01.042Z,-1.15
2019-02-04T04:36:10.118Z,-1.20
2019-02-04T04:39:17.430Z,-1.17
2019-02-04T04:42:24.492Z,-1.24
2019-02-04T04:45:31.459Z,-1.20
2019-02-04T04:48:38.557Z,-1.12
2019-02-04T04:51:46.795Z,-1.04
2019-02-04T04:54:54.070Z,-1.06
2019-02-04T04:58:01.435Z,-1.12
2019-02-04T05:01:08.565Z,-1.01
2019-02-04T05:04:15.603Z,-1.15
2019-02-04T05:07:22.516Z,-0.97
2019-02-04T05:10:29.513Z,-0.98
2019-02-04T05:13:36.511Z,-1.01
2019-02-04T05:16:43.571Z,-0.97
2019-02-04T05:19:50.790Z,-0.91
2019-02-04T05:22:58.209Z,-0.86
2019-02-04T05:26:05.255Z,-1.04
2019-02-04T05:29:12.205Z,-0.99
2019-02-04T05:32:19.231Z,-1.13
2019-02-04T05:35:26.587Z,-1.14
2019-02-04T05:38:33.615Z,-1.08
2019-02-04T05:41:42.896Z,-1.13
2019-02-04T05:44:49.562Z,-1.00
2019-02-04T05:47:56.608Z,-1.04
2019-02-04T05:51:03.585Z,-1.07
2019-02-04T05:54:10.534Z,-1.17
2019-02-04T05:57:17.560Z,-1.23
2019-02-04T06:00:35.388Z,-1.22
2019-02-04T06:03:42.391Z,-1.19
2019-02-04T06:06:49.537Z,-1.14
2019-02-04T06:09:56.767Z,-1.19
2019-02-04T06:13:03.862Z,-1.23
2019-02-04T06:16:10.828Z,-1.37
2019-02-04T06:19:17.769Z,-1.58
2019-02-04T06:22:25.003Z,-1.72
2019-02-04T06:25:31.975Z,-1.78
2019-02-04T06:28:38.990Z,-1.83
2019-02-04T06:31:46.017Z,-1.84
2019-02-04T06:34:53.194Z,-2.04
2019-02-04T06:38:00.101Z,-1.99
2019-02-04T06:41:07.109Z,-1.98
2019-02-04T06:44:16.633Z,-2.82
2019-02-04T06:47:23.635Z,-2.16
2019-02-04T06:50:30.743Z,-2.37
2019-02-04T06:53:37.731Z,-2.14
2019-02-04T06:56:45.063Z,-2.40
2019-02-04T06:59:52.193Z,-2.28
2019-02-04T07:03:00.793Z,-2.07
2019-02-04T07:06:07.830Z,-2.12
2019-02-04T07:09:14.971Z,-2.38
2019-02-04T07:12:21.990Z,-2.67
2019-02-04T07:15:28.955Z,-2.72
2019-02-04T07:18:36.362Z,-2.33
2019-02-04T07:21:43.498Z,-2.48
2019-02-04T07:24:50.796Z,-2.52
2019-02-04T07:27:57.994Z,-2.66
2019-02-04T07:31:05.006Z,-2.75
2019-02-04T07:34:12.083Z,-3.43
2019-02-04T07:37:19.228Z,-4.12
2019-02-04T07:40:29.524Z,-4.09
2019-02-04T07:43:36.889Z,-3.61
2019-02-04T07:46:44.055Z,-3.39
2019-02-04T07:49:51.016Z,-4.52
2019-02-04T07:52:57.979Z,-3.91
2019-02-04T07:56:05.196Z,-3.42
2019-02-04T07:59:12.125Z,-3.13
2019-02-04T08:02:19.189Z,-2.80
2019-02-04T08:05:27.475Z,-2.64
2019-02-04T08:08:34.472Z,-2.55
2019-02-04T08:11:45.484Z,-2.61
2019-02-04T08:14:52.738Z,-2.72
2019-02-04T08:17:59.726Z,-2.35
2019-02-04T08:21:06.695Z,-2.43
2019-02-04T08:24:13.791Z,-2.35
2019-02-04T08:27:20.785Z,-2.47
2019-02-04T08:30:33.696Z,-2.21
2019-02-04T08:33:44.130Z,-2.43
2019-02-04T08:36:51.311Z,-2.28
2019-02-04T08:39:58.393Z,-2.51
2019-02-04T08:43:05.499Z,-2.01
2019-02-04T08:46:12.450Z,-1.80
2019-02-04T08:49:19.753Z,-1.98
2019-02-04T08:52:26.753Z,-1.73
2019-02-04T08:55:33.707Z,-1.73
2019-02-04T08:58:43.940Z,-1.82
2019-02-04T09:01:50.854Z,-1.68
2019-02-04T09:04:57.868Z,-1.89
2019-02-04T09:08:06.175Z,-1.45
2019-02-04T09:11:13.584Z,-1.65
2019-02-04T09:14:20.630Z,-1.89
2019-02-04T09:17:27.709Z,-1.47
2019-02-04T09:20:34.755Z,-1.41
2019-02-04T09:23:42.038Z,-1.21
2019-02-04T09:26:49.159Z,-1.10
2019-02-04T09:29:56.439Z,-0.81
2019-02-04T09:33:03.987Z,-0.89
2019-02-04T09:36:10.982Z,-0.84
2019-02-04T09:39:20.920Z,-0.86
2019-02-04T09:42:27.928Z,-0.60
2019-02-04T09:45:38.751Z,-0.59
2019-02-04T09:48:45.930Z,-0.51
2019-02-04T09:51:52.945Z,-0.56
2019-02-04T09:55:00.463Z,-0.51
2019-02-04T09:58:07.566Z,-0.28
2019-02-04T10:01:14.878Z,-0.20
2019-02-04T10:04:21.833Z,-0.11
2019-02-04T10:07:28.807Z,-0.09
2019-02-04T10:10:37.754Z,0.03
2019-02-04T10:13:45.242Z,0.06
2019-02-04T10:16:52.180Z,0.25
2019-02-04T10:19:59.143Z,0.26
2019-02-04T10:23:07.144Z,0.32
2019-02-04T10:26:14.203Z,0.28
2019-02-04T10:29:22.565Z,0.42
2019-02-04T10:32:29.509Z,0.40
2019-02-04T10:35:36.553Z,0.58
2019-02-04T10:38:43.910Z,0.62
2019-02-04T10:41:51.185Z,0.62
2019-02-04T10:44:58.170Z,0.71
2019-02-04T10:48:05.229Z,0.75
2019-02-04T10:51:12.362Z,0.98
2019-02-04T10:54:19.445Z,0.85
2019-02-04T10:57:26.520Z,1.06
2019-02-04T11:00:35.036Z,0.92
2019-02-04T11:03:42.452Z,1.04
2019-02-04T11:06:49.648Z,1.05
2019-02-04T11:09:56.664Z,1.22
2019-02-04T11:13:06.976Z,1.37
2019-02-04T11:16:13.981Z,1.67
2019-02-04T11:19:21.341Z,1.92
2019-02-04T11:22:28.427Z,1.92
2019-02-04T11:25:35.425Z,2.28
2019-02-04T11:28:42.446Z,2.13
2019-02-04T11:31:55.479Z,1.98
2019-02-04T11:35:03.655Z,1.91
2019-02-04T11:38:10.735Z,2.11
2019-02-04T11:41:17.828Z,2.03
2019-02-04T11:44:24.857Z,2.07
2019-02-04T11:47:31.950Z,2.44
2019-02-04T11:50:40.101Z,2.35
2019-02-04T11:53:47.414Z,2.35
2019-02-04T11:56:58.388Z,2.47
2019-02-04T12:00:07.413Z,2.35
2019-02-04T12:03:16.361Z,2.65
2019-02-04T12:06:23.621Z,2.47
2019-02-04T12:09:30.622Z,2.44
2019-02-04T12:12:39.217Z,2.47
2019-02-04T12:15:49.084Z,2.60
2019-02-04T12:18:56.434Z,2.64
2019-02-04T12:22:03.475Z,2.71
2019-02-04T12:25:13.175Z,2.55
2019-02-04T12:28:20.098Z,2.54
2019-02-04T12:31:27.156Z,3.02
2019-02-04T12:34:34.169Z,2.95
2019-02-04T12:37:41.384Z,3.06
2019-02-04T12:40:49.898Z,2.76
2019-02-04T12:43:59.519Z,2.95
2019-02-04T12:47:07.065Z,2.96
2019-02-04T12:50:14.400Z,2.91
2019-02-04T12:53:21.346Z,3.09
2019-02-04T12:56:28.335Z,2.77
2019-02-04T12:59:35.603Z,3.02
2019-02-04T13:02:42.503Z,3.26
2019-02-04T13:05:53.055Z,2.90
2019-02-04T13:09:00.139Z,3.08
2019-02-04T13:12:09.165Z,2.89
2019-02-04T13:15:19.812Z,2.93
2019-02-04T13:18:27.103Z,2.73
2019-02-04T13:21:45.108Z,2.92
2019-02-04T13:24:45.916Z,3.05
2019-02-04T13:27:52.997Z,2.80
2019-02-04T13:31:00.031Z,2.67
2019-02-04T13:34:07.290Z,2.92
2019-02-04T13:37:14.345Z,3.01
2019-02-04T13:40:25.164Z,3.03
2019-02-04T13:43:32.098Z,2.99
2019-02-04T13:46:39.112Z,2.90
2019-02-04T13:49:48.295Z,2.63
2019-02-04T13:52:56.868Z,2.86
2019-02-04T13:56:04.135Z,2.43
2019-02-04T13:59:11.346Z,2.63
2019-02-04T14:02:18.508Z,2.63
2019-02-04T14:05:25.714Z,2.10
2019-02-04T14:08:32.744Z,1.92
2019-02-04T14:11:41.671Z,2.04
2019-02-04T14:14:48.381Z,2.22
2019-02-04T14:17:55.407Z,2.11
2019-02-04T14:21:02.651Z,2.09
2019-02-04T14:24:09.580Z,2.13
2019-02-04T14:27:17.777Z,2.34
2019-02-04T14:30:39.693Z,2.48
2019-02-04T14:33:46.696Z,2.64
2019-02-04T14:36:53.936Z,2.51
2019-02-04T14:40:18.073Z,2.48
2019-02-04T14:43:38.194Z,2.61
2019-02-04T14:47:18.240Z,2.39
2019-02-04T14:51:11.045Z,2.38
2019-02-04T14:55:13.668Z,2.28
2019-02-04T14:58:40.886Z,2.35
2019-02-04T15:02:47.423Z,2.48
2019-02-04T15:06:25.701Z,2.36
2019-02-04T15:10:21.444Z,2.04
2019-02-04T15:14:11.709Z,1.25
2019-02-04T15:17:40.290Z,1.55
2019-02-04T15:21:45.934Z,1.48
2019-02-04T15:25:35.520Z,1.31
2019-02-04T15:29:33.637Z,1.10
2019-02-04T15:33:41.937Z,0.94
2019-02-04T15:37:23.281Z,1.06
2019-02-04T15:40:45.265Z,0.54
2019-02-04T15:44:26.052Z,0.86
2019-02-04T15:47:54.982Z,0.50
2019-02-04T15:51:14.937Z,0.24
2019-02-04T15:54:21.776Z,-0.35
2019-02-04T15:57:30.367Z,-0.04
2019-02-04T16:00:40.746Z,-0.12
2019-02-04T16:03:47.505Z,-0.69
2019-02-04T16:06:55.574Z,-0.06
2019-02-04T16:10:02.605Z,-0.21
2019-02-04T16:13:09.559Z,0.26
2019-02-04T16:16:16.608Z,0.22
2019-02-04T16:19:23.871Z,0.35
2019-02-04T16:22:31.716Z,0.41
2019-02-04T16:25:38.705Z,0.40
2019-02-04T16:28:45.754Z,0.38
2019-02-04T16:31:53.235Z,0.31
2019-02-04T16:35:00.389Z,0.14
2019-02-04T16:38:15.641Z,0.11
2019-02-04T16:41:24.236Z,0.22
2019-02-04T16:44:31.582Z,0.14
2019-02-04T16:47:38.842Z,0.21
2019-02-04T16:50:58.949Z,-0.01
2019-02-04T16:53:55.007Z,-0.02
2019-02-04T16:57:01.902Z,-0.06
2019-02-04T17:00:11.985Z,-0.12
2019-02-04T17:03:19.064Z,-0.20
2019-02-04T17:06:26.140Z,-0.08
2019-02-04T17:09:33.270Z,-0.51
2019-02-04T17:12:40.689Z,-0.41
2019-02-04T17:15:48.751Z,-0.27
2019-02-04T17:18:55.719Z,-0.77
2019-02-04T17:22:03.073Z,-0.39
2019-02-04T17:25:10.328Z,-0.24
2019-02-04T17:28:18.623Z,-0.33
2019-02-04T17:31:27.273Z,-0.26
2019-02-04T17:34:36.896Z,-0.40
2019-02-04T17:37:46.283Z,-0.46
2019-02-04T17:40:53.656Z,-0.70
2019-02-04T17:44:00.809Z,-0.37
2019-02-04T17:47:07.766Z,-0.57
2019-02-04T17:50:17.667Z,-0.50
2019-02-04T17:53:33.870Z,-0.44
2019-02-04T17:56:33.308Z,-0.54
2019-02-04T17:59:40.649Z,-0.68
2019-02-04T18:02:48.065Z,-0.70
2019-02-04T18:05:56.035Z,-1.03
2019-02-04T18:09:04.316Z,-1.48
2019-02-04T18:12:12.369Z,-1.57
2019-02-04T18:15:21.624Z,-1.83
2019-02-04T18:18:28.774Z,-2.12
2019-02-04T18:21:35.897Z,-1.91
2019-02-04T18:24:43.106Z,-1.81
2019-02-04T18:27:51.823Z,-1.91
2019-02-04T18:30:59.199Z,-1.74
2019-02-04T18:34:07.049Z,-1.70
2019-02-04T18:37:14.103Z,-1.77
2019-02-04T18:40:21.224Z,-1.91
2019-02-04T18:43:28.929Z,-1.95
2019-02-04T18:46:35.996Z,-2.13
2019-02-04T18:49:43.143Z,-2.29
2019-02-04T18:52:50.166Z,-2.15
2019-02-04T18:55:57.209Z,-2.32
2019-02-04T18:59:04.646Z,-2.35
2019-02-04T19:02:11.540Z,-3.55
2019-02-04T19:05:18.722Z,-3.27
2019-02-04T19:08:27.924Z,-3.20
2019-02-04T19:11:36.055Z,-3.46
2019-02-04T19:14:43.165Z,-3.12
2019-02-04T19:17:53.554Z,-2.89
2019-02-04T19:27:57.146Z,-3.15
2019-02-04T19:31:32.464Z,-2.79
2019-02-04T19:34:39.648Z,-2.89
2019-02-04T19:37:46.626Z,-3.29
2019-02-04T19:40:53.580Z,-3.41
2019-02-04T19:44:00.540Z,-3.29
2019-02-04T19:47:08.149Z,-3.13
2019-02-04T19:50:28.999Z,-2.94
2019-02-04T19:53:35.955Z,-2.85
2019-02-04T19:56:45.978Z,-3.13
2019-02-04T19:59:53.007Z,-3.13
2019-02-04T20:02:59.942Z,-2.96
2019-02-04T20:06:07.717Z,-3.95
2019-02-04T20:09:14.679Z,-3.69
2019-02-04T20:12:21.604Z,-3.58
2019-02-04T20:15:29.159Z,-3.17
2019-02-04T20:18:36.995Z,-4.16
2019-02-04T20:21:45.656Z,-3.46
2019-02-04T20:24:52.768Z,-3.06
2019-02-04T20:28:00.005Z,-3.22
2019-02-04T20:31:07.656Z,-2.98
2019-02-04T20:34:16.727Z,-2.93
2019-02-04T20:37:23.350Z,-2.97
2019-02-04T20:40:31.868Z,-3.11
2019-02-04T20:43:39.254Z,-3.07
2019-02-04T20:46:46.261Z,-2.99
2019-02-04T20:49:53.232Z,-2.89
2019-02-04T20:53:00.103Z,-2.94
2019-02-04T20:56:07.010Z,-2.99
2019-02-04T20:59:13.888Z,-3.12
2019-02-04T21:02:20.804Z,-2.99
2019-02-04T21:05:28.446Z,-2.86
2019-02-04T21:08:38.482Z,-2.99
2019-02-04T21:11:45.803Z,-2.96
2019-02-04T21:14:52.927Z,-2.97
2019-02-04T21:18:00.258Z,-2.98
2019-02-04T21:21:07.402Z,-2.98
2019-02-04T21:24:14.354Z,-3.06
2019-02-04T21:27:21.657Z,-3.07
2019-02-04T21:30:38.399Z,-2.74
2019-02-04T21:33:45.694Z,-2.81
2019-02-04T21:36:52.552Z,-2.84
2019-02-04T21:39:59.740Z,-2.74
2019-02-04T21:43:06.839Z,-2.52
2019-02-04T21:46:13.754Z,-2.52
2019-02-04T21:49:20.640Z,-2.34
2019-02-04T21:52:31.232Z,-2.31
2019-02-04T21:55:39.961Z,-2.44
2019-02-04T21:58:47.399Z,-2.39
2019-02-04T22:01:55.987Z,-2.38
2019-02-04T22:05:02.905Z,-2.23
2019-02-04T22:08:09.866Z,-2.24
2019-02-04T22:11:17.156Z,-2.28
2019-02-04T22:14:24.371Z,-2.45
2019-02-04T22:17:34.401Z,-2.38
2019-02-04T22:20:41.414Z,-2.46
2019-02-04T22:23:51.094Z,-2.63
2019-02-04T22:26:58.170Z,-2.40
2019-02-04T22:30:06.909Z,-2.62
2019-02-04T22:33:14.172Z,-2.55
2019-02-04T22:36:21.571Z,-2.49
2019-02-04T22:39:28.434Z,-2.45
2019-02-04T22:42:35.346Z,-2.41
2019-02-04T22:45:42.224Z,-2.58
2019-02-04T22:48:52.330Z,-2.57
2019-02-04T22:51:59.334Z,-2.52
2019-02-04T22:55:06.879Z,-2.52
2019-02-04T22:58:14.350Z,-2.46
2019-02-04T23:01:51.367Z,-2.42
2019-02-04T23:04:58.224Z,-2.42
2019-02-04T23:08:05.430Z,-2.44
2019-02-04T23:11:12.302Z,-2.51
2019-02-04T23:14:19.241Z,-2.53
2019-02-04T23:17:26.036Z,-2.67
2019-02-04T23:20:33.029Z,-2.58
2019-02-04T23:23:39.902Z,-2.64
2019-02-04T23:26:54.522Z,-2.67
2019-02-04T23:30:01.420Z,-2.68
2019-02-04T23:33:08.544Z,-2.61
2019-02-04T23:36:15.418Z,-2.53
2019-02-04T23:39:22.666Z,-2.49
2019-02-04T23:42:29.530Z,-2.61
2019-02-04T23:45:36.377Z,-2.58
2019-02-04T23:48:43.253Z,-2.63
2019-02-04T23:51:50.143Z,-2.56
2019-02-04T23:54:57.112Z,-2.72
2019-02-04T23:58:04.990Z,-2.72
